Time,TemperatureF,DewpointF,PressureIn,WindDirection,WindDirectionDegrees,WindSpeedMPH,WindSpeedGustMPH,Humidity,HourlyPrecipIn,Conditions,Clouds,dailyrainin,SoftwareType,DateUTC
2013-08-24 00:04:00,59.7,57.0,30.09,SE,142,0.0,0.0,90,0.00,,,0.01,weatherlink.com 1.10,2013-08-24 04:04:00,
2013-08-24 00:19:00,59.0,56.0,30.10,SE,142,0.0,0.0,91,0.00,,,0.01,weatherlink.com 1.10,2013-08-24 04:19:00,
2013-08-24 00:34:00,58.5,57.0,30.11,SE,138,0.0,1.0,93,0.00,,,0.01,weatherlink.com 1.10,2013-08-24 04:34:00,
2013-08-24 00:49:00,58.1,56.0,30.11,SE,138,0.0,1.0,93,0.00,,,0.01,weatherlink.com 1.10,2013-08-24 04:49:00,
2013-08-24 01:04:00,57.9,56.0,30.11,SE,138,0.0,0.0,94,0.00,,,0.01,weatherlink.com 1.10,2013-08-24 05:04:00,
2013-08-24 01:19:00,57.7,56.0,30.11,SE,138,0.0,0.0,94,0.00,,,0.01,weatherlink.com 1.10,2013-08-24 05:19:00,
2013-08-24 01:34:00,57.4,56.0,30.11,SE,138,0.0,2.0,95,0.00,,,0.01,weatherlink.com 1.10,2013-08-24 05:34:00,
2013-08-24 01:49:00,57.4,56.0,30.11,SE,137,0.0,2.0,96,0.00,,,0.01,weatherlink.com 1.10,2013-08-24 05:49:00,
2013-08-24 02:04:00,57.2,56.0,30.12,SE,137,0.0,1.0,96,0.00,,,0.01,weatherlink.com 1.10,2013-08-24 06:04:00,
2013-08-24 02:19:00,56.9,56.0,30.13,SE,137,0.0,0.0,96,0.00,,,0.01,weatherlink.com 1.10,2013-08-24 06:19:00,
2013-08-24 02:34:00,56.6,55.0,30.13,SE,137,0.0,1.0,95,0.00,,,0.01,weatherlink.com 1.10,2013-08-24 06:34:00,
2013-08-24 02:49:00,56.3,55.0,30.14,SE,137,0.0,0.0,95,0.00,,,0.01,weatherlink.com 1.10,2013-08-24 06:49:00,
2013-08-24 03:05:00,56.1,55.0,30.14,SE,137,0.0,0.0,96,0.00,,,0.01,weatherlink.com 1.10,2013-08-24 07:05:00,
2013-08-24 03:20:00,55.9,55.0,30.15,SE,137,0.0,0.0,96,0.00,,,0.01,weatherlink.com 1.10,2013-08-24 07:20:00,
2013-08-24 03:35:00,55.8,55.0,30.15,SSE,156,0.0,2.0,96,0.00,,,0.01,weatherlink.com 1.10,2013-08-24 07:35:00,
2013-08-24 03:50:00,55.7,55.0,30.16,SE,146,0.0,3.0,96,0.00,,,0.01,weatherlink.com 1.10,2013-08-24 07:50:00,
2013-08-24 04:05:00,55.7,55.0,30.16,ESE,122,0.0,2.0,96,0.00,,,0.01,weatherlink.com 1.10,2013-08-24 08:05:00,
2013-08-24 04:20:00,55.7,54.0,30.17,ESE,107,2.0,2.0,95,0.00,,,0.01,weatherlink.com 1.10,2013-08-24 08:20:00,
2013-08-24 04:35:00,55.8,54.0,30.17,SE,131,0.0,1.0,95,0.00,,,0.01,weatherlink.com 1.10,2013-08-24 08:35:00,
2013-08-24 04:50:00,55.7,54.0,30.18,SE,131,0.0,0.0,94,0.00,,,0.01,weatherlink.com 1.10,2013-08-24 08:50:00,
2013-08-24 05:05:00,55.6,54.0,30.18,SE,131,0.0,0.0,94,0.00,,,0.01,weatherlink.com 1.10,2013-08-24 09:05:00,
2013-08-24 05:20:00,55.3,54.0,30.19,SE,131,0.0,0.0,94,0.00,,,0.01,weatherlink.com 1.10,2013-08-24 09:20:00,
2013-08-24 05:35:00,55.0,53.0,30.19,SE,131,0.0,0.0,94,0.00,,,0.01,weatherlink.com 1.10,2013-08-24 09:35:00,
2013-08-24 05:50:00,54.6,53.0,30.20,SE,131,0.0,0.0,94,0.00,,,0.01,weatherlink.com 1.10,2013-08-24 09:50:00,
2013-08-24 06:05:00,54.4,53.0,30.20,SE,131,0.0,0.0,95,0.00,,,0.01,weatherlink.com 1.10,2013-08-24 10:05:00,
2013-08-24 06:20:00,54.1,53.0,30.21,SE,131,0.0,0.0,95,0.00,,,0.01,weatherlink.com 1.10,2013-08-24 10:20:00,
2013-08-24 06:35:00,53.9,53.0,30.21,SE,131,0.0,0.0,95,0.00,,,0.00,weatherlink.com 1.10,2013-08-24 10:35:00,
2013-08-24 06:50:00,53.8,52.0,30.22,SE,131,0.0,1.0,95,0.00,,,0.00,weatherlink.com 1.10,2013-08-24 10:50:00,
2013-08-24 07:05:00,53.7,53.0,30.23,South,177,0.0,1.0,96,0.00,,,0.00,weatherlink.com 1.10,2013-08-24 11:05:00,
2013-08-24 07:20:00,54.0,53.0,30.23,South,176,0.0,1.0,96,0.00,,,0.00,weatherlink.com 1.10,2013-08-24 11:20:00,
2013-08-24 07:35:00,54.5,54.0,30.23,SSW,195,0.0,2.0,97,0.00,,,0.00,weatherlink.com 1.10,2013-08-24 11:35:00,
2013-08-24 07:50:00,55.4,55.0,30.24,South,186,1.0,2.0,97,0.00,,,0.00,weatherlink.com 1.10,2013-08-24 11:50:00,
2013-08-24 08:05:00,56.4,56.0,30.25,SSW,212,0.0,3.0,97,0.00,,,0.00,weatherlink.com 1.10,2013-08-24 12:05:00,
2013-08-24 08:20:00,58.1,56.0,30.25,South,173,0.0,4.0,93,0.00,,,0.00,weatherlink.com 1.10,2013-08-24 12:20:00,
2013-08-24 08:35:00,61.3,55.0,30.25,NNE,32,0.0,10.0,80,0.00,,,0.00,weatherlink.com 1.10,2013-08-24 12:35:00,
2013-08-24 08:50:00,63.2,55.0,30.25,South,180,0.0,5.0,75,0.00,,,0.00,weatherlink.com 1.10,2013-08-24 12:50:00,
2013-08-24 09:05:00,64.7,55.0,30.26,NNE,30,0.0,9.0,72,0.00,,,0.00,weatherlink.com 1.10,2013-08-24 13:05:00,
2013-08-24 09:21:00,65.6,55.0,30.27,SW,221,4.0,4.0,69,0.00,,,0.00,weatherlink.com 1.10,2013-08-24 13:21:00,
2013-08-24 09:36:00,66.7,57.0,30.27,ENE,73,0.0,2.0,71,0.00,,,0.00,weatherlink.com 1.10,2013-08-24 13:36:00,
2013-08-24 09:51:00,67.8,56.0,30.27,NNE,17,0.0,7.0,65,0.00,,,0.00,weatherlink.com 1.10,2013-08-24 13:51:00,
2013-08-24 10:06:00,68.8,56.0,30.28,North,11,0.0,3.0,64,0.00,,,0.00,weatherlink.com 1.10,2013-08-24 14:06:00,
2013-08-24 10:21:00,69.6,56.0,30.28,East,98,3.0,5.0,62,0.00,,,0.00,weatherlink.com 1.10,2013-08-24 14:21:00,
2013-08-24 10:36:00,70.9,56.0,30.27,NW,315,0.0,8.0,59,0.00,,,0.00,weatherlink.com 1.10,2013-08-24 14:36:00,
2013-08-24 10:51:00,71.5,57.0,30.28,ESE,120,4.0,6.0,60,0.00,,,0.00,weatherlink.com 1.10,2013-08-24 14:51:00,
2013-08-24 11:06:00,71.9,57.0,30.27,NNE,20,1.0,4.0,60,0.00,,,0.00,weatherlink.com 1.10,2013-08-24 15:06:00,
2013-08-24 11:21:00,72.2,57.0,30.28,West,266,2.0,6.0,59,0.00,,,0.00,weatherlink.com 1.10,2013-08-24 15:21:00,
2013-08-24 11:36:00,71.3,54.0,30.27,NE,38,4.0,7.0,55,0.00,,,0.00,weatherlink.com 1.10,2013-08-24 15:36:00,
2013-08-24 11:51:00,72.1,56.0,30.27,NW,315,1.0,7.0,57,0.00,,,0.00,weatherlink.com 1.10,2013-08-24 15:51:00,
2013-08-24 12:06:00,73.3,54.0,30.27,North,5,0.0,6.0,52,0.00,,,0.00,weatherlink.com 1.10,2013-08-24 16:06:00,
2013-08-24 12:21:00,74.3,56.0,30.27,ESE,111,3.0,8.0,54,0.00,,,0.00,weatherlink.com 1.10,2013-08-24 16:21:00,
2013-08-24 12:36:00,74.2,54.0,30.27,ESE,121,2.0,8.0,49,0.00,,,0.00,weatherlink.com 1.10,2013-08-24 16:36:00,
2013-08-24 12:51:00,75.5,58.0,30.27,West,261,0.0,7.0,54,0.00,,,0.00,weatherlink.com 1.10,2013-08-24 16:51:00,
2013-08-24 13:06:00,77.3,55.0,30.27,East,94,0.0,6.0,47,0.00,,,0.00,weatherlink.com 1.10,2013-08-24 17:06:00,
2013-08-24 13:21:00,76.2,53.0,30.27,NNE,26,2.0,8.0,44,0.00,,,0.00,weatherlink.com 1.10,2013-08-24 17:21:00,
2013-08-24 13:36:00,76.2,54.0,30.27,North,9,4.0,7.0,47,0.00,,,0.00,weatherlink.com 1.10,2013-08-24 17:36:00,
2013-08-24 13:51:00,77.1,56.0,30.26,East,99,6.0,8.0,49,0.00,,,0.00,weatherlink.com 1.10,2013-08-24 17:51:00,
2013-08-24 14:06:00,79.1,55.0,30.26,NW,307,2.0,2.0,44,0.00,,,0.00,weatherlink.com 1.10,2013-08-24 18:06:00,
2013-08-24 14:21:00,80.5,57.0,30.26,SSE,155,2.0,7.0,44,0.00,,,0.00,weatherlink.com 1.10,2013-08-24 18:21:00,
2013-08-24 14:36:00,83.2,58.0,30.26,NNW,331,0.0,4.0,42,0.00,,,0.00,weatherlink.com 1.10,2013-08-24 18:36:00,
2013-08-24 14:51:00,81.7,56.0,30.26,West,263,0.0,5.0,41,0.00,,,0.00,weatherlink.com 1.10,2013-08-24 18:51:00,
2013-08-24 15:06:00,80.4,57.0,30.26,NNW,328,1.0,7.0,45,0.00,,,0.00,weatherlink.com 1.10,2013-08-24 19:06:00,
2013-08-24 15:21:00,79.3,55.0,30.25,SE,128,6.0,8.0,44,0.00,,,0.00,weatherlink.com 1.10,2013-08-24 19:21:00,
2013-08-24 15:36:00,79.2,55.0,30.26,ENE,66,4.0,5.0,44,0.00,,,0.00,weatherlink.com 1.10,2013-08-24 19:36:00,
2013-08-24 15:51:00,78.8,54.0,30.26,NW,318,1.0,4.0,43,0.00,,,0.00,weatherlink.com 1.10,2013-08-24 19:51:00,
2013-08-24 16:06:00,80.0,56.0,30.25,East,99,3.0,6.0,44,0.00,,,0.00,weatherlink.com 1.10,2013-08-24 20:06:00,
2013-08-24 16:21:00,77.8,55.0,30.26,SE,140,1.0,7.0,46,0.00,,,0.00,weatherlink.com 1.10,2013-08-24 20:21:00,
2013-08-24 16:36:00,78.6,55.0,30.25,East,81,3.0,9.0,45,0.00,,,0.00,weatherlink.com 1.10,2013-08-24 20:36:00,
2013-08-24 16:51:00,78.1,54.0,30.26,NE,34,0.0,4.0,44,0.00,,,0.00,weatherlink.com 1.10,2013-08-24 20:51:00,
2013-08-24 17:06:00,77.4,52.0,30.26,SE,132,2.0,4.0,42,0.00,,,0.00,weatherlink.com 1.10,2013-08-24 21:06:00,
2013-08-24 17:21:00,77.5,53.0,30.25,ENE,76,1.0,3.0,43,0.00,,,0.00,weatherlink.com 1.10,2013-08-24 21:21:00,
2013-08-24 17:36:00,77.5,53.0,30.26,East,98,2.0,2.0,43,0.00,,,0.00,weatherlink.com 1.10,2013-08-24 21:36:00,
2013-08-24 17:51:00,77.4,52.0,30.26,East,89,1.0,3.0,41,0.00,,,0.00,weatherlink.com 1.10,2013-08-24 21:51:00,
2013-08-24 18:06:00,77.1,55.0,30.26,ENE,59,0.0,2.0,46,0.00,,,0.00,weatherlink.com 1.10,2013-08-24 22:06:00,
2013-08-24 18:21:00,75.5,59.0,30.26,ENE,59,0.0,1.0,56,0.00,,,0.00,weatherlink.com 1.10,2013-08-24 22:21:00,
2013-08-24 18:36:00,73.9,59.0,30.26,ENE,59,1.0,1.0,61,0.00,,,0.00,weatherlink.com 1.10,2013-08-24 22:36:00,
2013-08-24 18:52:00,70.7,57.0,30.26,ENE,59,0.0,1.0,63,0.00,,,0.00,weatherlink.com 1.10,2013-08-24 22:52:00,
2013-08-24 19:07:00,68.1,57.0,30.26,ENE,59,0.0,1.0,67,0.00,,,0.00,weatherlink.com 1.10,2013-08-24 23:07:00,
2013-08-24 19:22:00,66.1,56.0,30.26,ENE,59,0.0,1.0,69,0.00,,,0.00,weatherlink.com 1.10,2013-08-24 23:22:00,
2013-08-24 19:37:00,63.9,55.0,30.27,ENE,59,0.0,2.0,73,0.00,,,0.00,weatherlink.com 1.10,2013-08-24 23:37:00,
2013-08-24 19:52:00,62.2,55.0,30.27,ENE,59,0.0,1.0,78,0.00,,,0.00,weatherlink.com 1.10,2013-08-24 23:52:00,
2013-08-24 20:07:00,60.7,55.0,30.28,ENE,75,0.0,2.0,81,0.00,,,0.00,weatherlink.com 1.10,2013-08-25 00:07:00,
2013-08-24 20:22:00,59.9,55.0,30.28,ENE,75,0.0,1.0,84,0.00,,,0.00,weatherlink.com 1.10,2013-08-25 00:22:00,
2013-08-24 20:37:00,59.0,55.0,30.29,East,82,0.0,1.0,86,0.00,,,0.00,weatherlink.com 1.10,2013-08-25 00:37:00,
2013-08-24 20:52:00,58.5,55.0,30.30,East,92,1.0,2.0,89,0.00,,,0.00,weatherlink.com 1.10,2013-08-25 00:52:00,
2013-08-24 21:07:00,58.2,55.0,30.30,East,92,0.0,2.0,90,0.00,,,0.00,weatherlink.com 1.10,2013-08-25 01:07:00,
2013-08-24 21:22:00,57.6,55.0,30.30,East,92,0.0,2.0,91,0.00,,,0.00,weatherlink.com 1.10,2013-08-25 01:22:00,
2013-08-24 21:37:00,57.4,55.0,30.31,East,92,0.0,1.0,92,0.00,,,0.00,weatherlink.com 1.10,2013-08-25 01:37:00,
2013-08-24 21:52:00,56.9,55.0,30.31,East,92,0.0,1.0,92,0.00,,,0.00,weatherlink.com 1.10,2013-08-25 01:52:00,
2013-08-24 22:07:00,56.1,54.0,30.31,East,92,0.0,2.0,92,0.00,,,0.00,weatherlink.com 1.10,2013-08-25 02:07:00,
2013-08-24 22:22:00,55.6,54.0,30.31,East,92,0.0,1.0,93,0.00,,,0.00,weatherlink.com 1.10,2013-08-25 02:22:00,
2013-08-24 22:37:00,55.3,54.0,30.31,East,92,0.0,1.0,94,0.00,,,0.00,weatherlink.com 1.10,2013-08-25 02:37:00,
2013-08-24 22:52:00,55.0,53.0,30.32,East,92,1.0,1.0,94,0.00,,,0.00,weatherlink.com 1.10,2013-08-25 02:52:00,
2013-08-24 23:07:00,54.5,53.0,30.32,East,97,1.0,2.0,95,0.00,,,0.00,weatherlink.com 1.10,2013-08-25 03:07:00,
2013-08-24 23:22:00,54.2,53.0,30.32,East,95,0.0,2.0,95,0.00,,,0.00,weatherlink.com 1.10,2013-08-25 03:22:00,
2013-08-24 23:37:00,53.9,53.0,30.32,East,95,0.0,0.0,95,0.00,,,0.00,weatherlink.com 1.10,2013-08-25 03:37:00,
2013-08-24 23:52:00,53.9,53.0,30.32,East,95,0.0,0.0,95,0.00,,,0.00,weatherlink.com 1.10,2013-08-25 03:52:00,